Time;durP1;ratioP1;P1;durP2;ratioP2;P2;SDS_P1;SDS_P2;PMS_P1;PMS_P2;Temp;Humidity;BMP_temperature;BMP_pressure;BME280_temperature;BME280_humidity;BME280_pressure;Samples;Min_cycle;Max_cycle;Signal;HPM_P1;HPM_P2
2022/01/23 00:02:27;;;;;;;135.73;30.87;;;6.30;99.90;;;;;;6168808;23;20424;-81
2022/01/23 00:04:57;;;;;;;190.23;32.17;;;6.20;99.90;;;;;;6183004;23;20744;-81
2022/01/23 00:07:38;;;;;;;177.67;26.03;;;6.20;99.90;;;;;;6182603;23;20432;-81
2022/01/23 00:10:12;;;;;;;153.83;26.93;;;6.30;99.90;;;;;;6146579;23;20500;-80
2022/01/23 00:12:46;;;;;;;123.00;27.33;;;6.20;99.90;;;;;;6145997;23;20888;-81
2022/01/23 00:18:03;;;;;;;131.73;23.37;;;6.20;99.90;;;;;;6147350;23;20417;-81
2022/01/23 00:20:33;;;;;;;137.33;29.43;;;6.20;99.90;;;;;;6147239;23;20416;-80
2022/01/23 00:23:12;;;;;;;142.73;26.37;;;6.20;99.90;;;;;;6147605;23;20424;-81
2022/01/23 00:31:18;;;;;;;234.13;31.97;;;6.20;99.90;;;;;;6145440;23;20408;-81
2022/01/23 00:33:47;;;;;;;167.17;20.47;;;6.20;99.90;;;;;;6146905;23;20417;-81
2022/01/23 00:36:17;;;;;;;156.93;33.47;;;6.20;99.90;;;;;;6146740;23;20440;-81
2022/01/23 00:38:45;;;;;;;217.70;35.93;;;6.20;99.90;;;;;;6147073;23;20416;-80
2022/01/23 00:41:14;;;;;;;116.43;27.87;;;6.20;99.90;;;;;;6147041;23;20475;-81
2022/01/23 00:43:46;;;;;;;173.20;32.03;;;6.20;99.90;;;;;;6146641;23;20443;-81
2022/01/23 00:46:24;;;;;;;167.30;30.83;;;6.20;99.90;;;;;;6147651;23;20436;-80
2022/01/23 00:49:24;;;;;;;206.57;33.80;;;6.20;99.90;;;;;;6147579;23;20474;-81
2022/01/23 00:51:53;;;;;;;215.13;25.80;;;6.20;99.90;;;;;;6146733;23;20444;-80
2022/01/23 00:54:24;;;;;;;131.53;24.83;;;6.20;99.90;;;;;;6181301;23;20408;-81
2022/01/23 00:56:54;;;;;;;209.00;34.73;;;6.20;99.90;;;;;;6181011;23;20413;-81
2022/01/23 00:59:24;;;;;;;261.40;42.27;;;6.20;99.90;;;;;;6145698;23;20421;-81
2022/01/23 01:01:53;;;;;;;81.03;23.23;;;6.20;99.90;;;;;;6144416;23;20919;-81
2022/01/23 01:04:21;;;;;;;117.67;22.80;;;6.20;99.90;;;;;;6145954;23;20421;-81
2022/01/23 01:06:56;;;;;;;176.57;28.07;;;6.20;99.90;;;;;;6144487;23;20439;-81
2022/01/23 01:09:27;;;;;;;258.13;33.10;;;6.10;99.90;;;;;;6145187;23;20864;-81
2022/01/23 01:11:58;;;;;;;174.93;24.50;;;6.20;99.90;;;;;;6144864;23;20452;-81
2022/01/23 01:14:53;;;;;;;133.50;27.63;;;6.10;99.90;;;;;;6145308;23;20419;-81
2022/01/23 01:17:28;;;;;;;117.97;28.47;;;6.10;99.90;;;;;;6144503;23;20491;-81
2022/01/23 01:31:09;;;;;;;180.03;32.00;;;6.00;99.90;;;;;;6145342;23;20418;-83
2022/01/23 01:33:45;;;;;;;242.73;35.90;;;6.10;99.90;;;;;;6145111;23;20896;-80
2022/01/23 01:36:24;;;;;;;73.33;18.90;;;6.00;99.90;;;;;;6145139;23;20440;-81
2022/01/23 01:39:00;;;;;;;108.97;28.27;;;6.00;99.90;;;;;;6144860;23;20409;-81
2022/01/23 01:41:29;;;;;;;137.57;26.43;;;6.00;99.90;;;;;;6144793;23;20435;-81
2022/01/23 01:43:57;;;;;;;138.43;26.80;;;6.00;99.90;;;;;;6145050;23;20436;-81
2022/01/23 01:46:49;;;;;;;153.53;26.40;;;6.00;99.90;;;;;;6145453;23;20507;-82
2022/01/23 01:49:23;;;;;;;188.17;30.67;;;6.00;99.90;;;;;;6144602;23;20432;-81
2022/01/23 01:51:52;;;;;;;204.47;29.37;;;6.00;99.90;;;;;;6144223;23;20463;-82
2022/01/23 01:54:25;;;;;;;129.73;24.40;;;6.00;99.90;;;;;;6144249;23;20974;-81
2022/01/23 01:57:05;;;;;;;112.30;15.83;;;6.00;99.90;;;;;;6143901;23;20460;-81
2022/01/23 01:59:50;;;;;;;167.83;24.67;;;6.00;99.90;;;;;;6143066;23;20507;-81
2022/01/23 02:02:50;;;;;;;115.70;21.43;;;6.00;99.90;;;;;;6163540;23;20404;-81
2022/01/23 02:08:23;;;;;;;167.70;21.93;;;6.00;99.90;;;;;;6142507;23;20487;-81
2022/01/23 02:11:01;;;;;;;277.63;35.13;;;6.00;99.90;;;;;;6141785;23;20412;-80
2022/01/23 02:13:38;;;;;;;148.17;19.17;;;6.00;99.90;;;;;;6142081;23;20443;-81
2022/01/23 02:25:13;;;;;;;190.37;27.23;;;6.00;99.90;;;;;;6142436;23;20455;-81
2022/01/23 02:52:56;;;;;;;182.20;25.87;;;6.00;99.90;;;;;;6116680;23;20416;-79
2022/01/23 02:55:39;;;;;;;66.83;14.03;;;6.00;99.90;;;;;;6144463;23;20435;-80
2022/01/23 02:58:10;;;;;;;261.27;29.73;;;6.00;99.90;;;;;;6145678;23;20401;-79
2022/01/23 03:00:49;;;;;;;140.20;24.83;;;6.00;99.90;;;;;;6144912;23;20484;-79
2022/01/23 03:03:42;;;;;;;169.90;28.33;;;6.00;99.90;;;;;;6171484;23;20481;-79
2022/01/23 03:06:53;;;;;;;131.73;26.43;;;6.00;99.90;;;;;;6153045;23;20432;-79
2022/01/23 03:12:32;;;;;;;107.73;25.30;;;6.00;99.90;;;;;;6144089;23;20857;-79
2022/01/23 03:15:06;;;;;;;82.40;22.60;;;6.00;99.90;;;;;;6144561;23;20492;-79
2022/01/23 03:29:01;;;;;;;149.03;24.47;;;6.00;99.90;;;;;;6168611;23;20527;-81
2022/01/23 03:31:33;;;;;;;163.50;24.93;;;5.90;99.90;;;;;;6145204;23;20417;-79
2022/01/23 03:34:05;;;;;;;145.47;22.90;;;5.90;99.90;;;;;;6145176;23;20412;-79
2022/01/23 03:36:33;;;;;;;227.37;36.30;;;5.90;99.90;;;;;;6145335;23;20476;-79
2022/01/23 03:39:02;;;;;;;165.47;32.93;;;5.90;99.90;;;;;;6143377;23;20413;-79
2022/01/23 03:41:30;;;;;;;150.43;22.07;;;6.00;99.90;;;;;;6145994;23;20409;-79
2022/01/23 03:44:01;;;;;;;220.53;32.97;;;5.90;99.90;;;;;;6145286;23;20492;-80
2022/01/23 03:46:47;;;;;;;163.57;19.63;;;6.00;99.90;;;;;;6145787;23;20459;-79
2022/01/23 03:49:32;;;;;;;218.87;35.80;;;5.90;99.90;;;;;;6146098;23;20463;-79
2022/01/23 03:52:17;;;;;;;74.37;16.60;;;5.90;99.90;;;;;;6145565;23;20481;-79
2022/01/23 03:54:46;;;;;;;92.20;25.63;;;5.90;99.90;;;;;;6146280;23;20435;-79
2022/01/23 03:57:15;;;;;;;184.20;29.50;;;6.00;99.90;;;;;;6145922;23;20440;-79
2022/01/23 03:59:45;;;;;;;169.07;24.53;;;6.00;99.90;;;;;;6146517;23;20420;-79
2022/01/23 04:02:16;;;;;;;166.50;32.97;;;6.00;99.90;;;;;;6145599;23;20416;-79
2022/01/23 04:05:35;;;;;;;120.40;23.40;;;6.00;99.90;;;;;;6053785;23;20423;-79
2022/01/23 04:08:29;;;;;;;183.27;31.77;;;6.00;99.90;;;;;;6029366;23;20479;-79
2022/01/23 04:21:16;;;;;;;96.37;21.90;;;6.00;99.90;;;;;;5955470;23;20171;-79
2022/01/23 04:32:19;;;;;;;232.23;32.47;;;6.00;99.90;;;;;;6056771;23;20497;-79
2022/01/23 04:35:07;;;;;;;213.17;39.23;;;6.00;99.90;;;;;;6056741;23;20415;-79
2022/01/23 04:46:18;;;;;;;128.17;27.83;;;6.00;99.90;;;;;;6144370;23;20444;-80
2022/01/23 04:59:30;;;;;;;198.60;28.93;;;6.00;99.90;;;;;;6144568;23;20770;-79
2022/01/23 05:00:02;;;;;;;282.63;41.63;;;6.00;99.90;;;;;;6144984;23;20397;-79
2022/01/23 05:03:02;;;;;;;126.97;28.73;;;6.10;99.90;;;;;;6180682;23;20437;-79
2022/01/23 05:05:59;;;;;;;94.13;26.90;;;6.00;99.90;;;;;;6169413;23;20413;-79
2022/01/23 05:08:49;;;;;;;121.27;24.57;;;6.00;99.90;;;;;;6144755;23;20451;-79
2022/01/23 05:11:47;;;;;;;193.33;34.73;;;6.00;99.90;;;;;;6144643;23;20440;-79
2022/01/23 05:14:34;;;;;;;136.47;31.07;;;6.00;99.90;;;;;;6143566;23;20416;-79
2022/01/23 05:17:09;;;;;;;84.37;19.83;;;6.00;99.90;;;;;;6143259;23;20924;-79
2022/01/23 05:30:35;;;;;;;172.93;30.00;;;6.00;99.90;;;;;;5927244;24;20786;-79
2022/01/23 05:33:05;;;;;;;136.10;25.80;;;6.10;99.90;;;;;;5991220;23;20416;-79
2022/01/23 05:39:34;;;;;;;183.90;32.37;;;6.10;99.90;;;;;;5795362;24;20412;-79
2022/01/23 05:42:08;;;;;;;197.90;36.80;;;6.10;99.90;;;;;;6017344;23;20424;-79
2022/01/23 05:44:40;;;;;;;195.30;41.10;;;6.10;99.90;;;;;;6027486;23;20459;-79
2022/01/23 05:47:13;;;;;;;284.00;36.80;;;6.10;99.90;;;;;;6027551;23;20480;-79
2022/01/23 05:50:01;;;;;;;204.70;37.90;;;6.10;99.90;;;;;;6026766;23;20469;-78
2022/01/23 05:52:38;;;;;;;183.90;33.73;;;6.10;99.90;;;;;;6057246;23;20416;-79
2022/01/23 05:55:27;;;;;;;210.83;37.37;;;6.10;99.90;;;;;;6178013;23;20919;-79
2022/01/23 05:58:21;;;;;;;120.63;25.37;;;6.10;99.90;;;;;;6143125;23;20480;-79
2022/01/23 06:00:51;;;;;;;144.00;26.50;;;6.10;99.90;;;;;;6143265;23;20890;-79
2022/01/23 06:03:23;;;;;;;165.80;33.33;;;6.10;99.90;;;;;;6145501;23;20416;-79
2022/01/23 06:06:06;;;;;;;268.03;36.07;;;6.10;99.90;;;;;;6143388;23;20440;-79
2022/01/23 06:08:36;;;;;;;95.80;23.83;;;6.10;99.90;;;;;;6144233;23;20433;-79
2022/01/23 06:11:06;;;;;;;215.77;34.87;;;6.10;99.90;;;;;;6143422;23;20436;-79
2022/01/23 06:13:50;;;;;;;137.80;28.40;;;6.10;99.90;;;;;;6143514;23;20487;-79
2022/01/23 06:16:19;;;;;;;161.33;31.43;;;6.10;99.90;;;;;;6143433;23;20446;-80
2022/01/23 06:19:11;;;;;;;170.03;33.30;;;6.10;99.90;;;;;;6119196;23;20432;-79
2022/01/23 06:21:58;;;;;;;193.80;29.97;;;6.10;99.90;;;;;;6179451;23;20396;-79
2022/01/23 06:25:09;;;;;;;245.53;36.53;;;6.10;99.90;;;;;;6031449;23;20421;-79
2022/01/23 06:27:47;;;;;;;121.60;29.83;;;6.10;99.90;;;;;;6000953;23;20505;-78
2022/01/23 06:30:15;;;;;;;162.20;28.63;;;6.10;99.90;;;;;;6085823;23;20436;-81
2022/01/23 06:32:48;;;;;;;220.87;32.63;;;6.10;99.90;;;;;;6145529;23;20412;-79
2022/01/23 06:35:29;;;;;;;225.40;40.63;;;6.10;99.90;;;;;;6181269;23;20408;-79
2022/01/23 06:37:59;;;;;;;157.50;28.67;;;6.20;99.90;;;;;;6145864;23;20496;-79
2022/01/23 06:40:30;;;;;;;184.50;28.93;;;6.20;99.90;;;;;;6170613;23;20413;-79
2022/01/23 06:43:15;;;;;;;84.67;25.37;;;6.20;99.90;;;;;;6147171;23;20431;-79
2022/01/23 06:45:58;;;;;;;157.93;29.67;;;6.20;99.90;;;;;;6146579;23;20500;-79
2022/01/23 06:48:27;;;;;;;84.60;24.63;;;6.20;99.90;;;;;;6144178;23;20425;-78
2022/01/23 06:50:56;;;;;;;131.20;25.00;;;6.20;99.90;;;;;;6144568;23;20444;-79
2022/01/23 06:53:26;;;;;;;115.73;28.53;;;6.20;99.90;;;;;;6145200;23;20463;-79
2022/01/23 06:55:54;;;;;;;138.63;22.47;;;6.20;99.90;;;;;;6145234;23;20483;-79
2022/01/23 06:58:23;;;;;;;282.60;38.33;;;6.20;99.90;;;;;;6145611;23;20408;-79
2022/01/23 07:00:54;;;;;;;137.80;23.43;;;6.20;99.90;;;;;;6145498;23;20432;-79
2022/01/23 07:03:40;;;;;;;162.37;30.77;;;6.20;99.90;;;;;;6145191;23;20415;-79
2022/01/23 07:06:43;;;;;;;151.73;23.40;;;6.20;99.90;;;;;;6171638;23;20526;-79
2022/01/23 07:09:31;;;;;;;122.97;24.87;;;6.20;99.90;;;;;;6145585;23;20718;-79
2022/01/23 07:12:10;;;;;;;160.93;24.67;;;6.20;99.90;;;;;;6182118;23;20452;-79
2022/01/23 07:14:59;;;;;;;161.50;32.13;;;6.20;99.90;;;;;;6181390;23;20463;-79
2022/01/23 07:17:40;;;;;;;111.73;20.63;;;6.20;99.90;;;;;;6181584;23;20434;-79
2022/01/23 07:20:22;;;;;;;184.57;28.40;;;6.20;99.90;;;;;;6144597;23;20799;-79
2022/01/23 07:22:55;;;;;;;180.93;28.80;;;6.20;99.90;;;;;;6145750;23;20421;-79
2022/01/23 07:25:24;;;;;;;183.63;30.87;;;6.20;99.90;;;;;;6145601;23;20459;-79
2022/01/23 07:27:55;;;;;;;74.57;26.40;;;6.20;99.90;;;;;;6144508;23;20768;-79
2022/01/23 07:30:33;;;;;;;219.67;44.37;;;6.20;99.90;;;;;;6145337;23;20433;-79
2022/01/23 07:33:02;;;;;;;257.03;37.37;;;6.20;99.90;;;;;;6146068;23;20447;-79
2022/01/23 07:35:44;;;;;;;95.33;24.23;;;6.20;99.90;;;;;;6142784;23;20425;-79
2022/01/23 07:38:16;;;;;;;198.50;31.47;;;6.30;99.90;;;;;;6144855;23;20425;-79
2022/01/23 07:40:59;;;;;;;182.17;22.50;;;6.20;99.90;;;;;;6144093;23;20899;-79
2022/01/23 07:43:58;;;;;;;138.73;26.57;;;6.20;99.90;;;;;;6124891;23;20411;-79
2022/01/23 07:46:46;;;;;;;125.60;31.90;;;6.20;99.90;;;;;;6171801;23;20489;-78
2022/01/23 07:49:49;;;;;;;282.50;36.13;;;6.20;99.90;;;;;;6162979;23;20420;-78
2022/01/23 07:52:46;;;;;;;199.20;30.60;;;6.20;99.90;;;;;;6141997;23;20455;-79
2022/01/23 07:55:42;;;;;;;176.70;24.87;;;6.20;99.90;;;;;;6159958;23;20416;-78
2022/01/23 07:58:22;;;;;;;143.97;25.50;;;6.20;99.90;;;;;;6141794;23;20942;-78
2022/01/23 08:01:05;;;;;;;153.03;30.83;;;6.20;99.90;;;;;;6177072;23;20389;-79
2022/01/23 08:03:42;;;;;;;181.83;28.90;;;6.20;99.90;;;;;;6139861;23;20416;-79
2022/01/23 08:06:15;;;;;;;188.80;31.40;;;6.20;99.90;;;;;;6140558;23;20435;-79
2022/01/23 08:08:44;;;;;;;145.13;22.43;;;6.30;99.90;;;;;;6175517;23;20401;-79
2022/01/23 08:11:19;;;;;;;186.13;32.20;;;6.20;99.90;;;;;;6139271;23;20446;-79
2022/01/23 08:13:47;;;;;;;87.27;17.70;;;6.20;99.90;;;;;;6140236;23;20420;-78
2022/01/23 08:16:16;;;;;;;100.40;18.67;;;6.30;99.90;;;;;;6166028;23;20432;-79
2022/01/23 08:18:44;;;;;;;104.97;21.57;;;6.30;99.90;;;;;;6141352;23;20417;-79
2022/01/23 08:21:13;;;;;;;128.00;28.60;;;6.30;99.90;;;;;;6140128;23;20895;-79
2022/01/23 08:23:41;;;;;;;280.87;38.80;;;6.30;99.90;;;;;;6139329;23;20427;-78
2022/01/23 08:26:10;;;;;;;158.83;36.77;;;6.30;99.90;;;;;;6139607;23;20436;-78
2022/01/23 08:28:40;;;;;;;171.30;37.07;;;6.30;99.90;;;;;;6175841;23;20873;-78
2022/01/23 08:31:08;;;;;;;142.00;25.13;;;6.30;99.90;;;;;;6176286;23;20429;-78
2022/01/23 08:33:36;;;;;;;168.10;27.30;;;6.30;99.90;;;;;;6164477;23;20409;-79
2022/01/23 08:36:05;;;;;;;254.37;30.50;;;6.30;99.90;;;;;;6139997;23;20447;-79
2022/01/23 08:38:34;;;;;;;142.97;27.17;;;6.40;99.90;;;;;;6164525;23;20464;-78
2022/01/23 08:43:50;;;;;;;132.57;23.00;;;6.40;99.90;;;;;;6165376;23;20420;-78
2022/01/23 08:46:19;;;;;;;145.63;25.53;;;6.40;99.90;;;;;;6175787;23;20452;-78
2022/01/23 08:48:48;;;;;;;184.63;34.20;;;6.40;99.90;;;;;;6138816;23;20467;-79
2022/01/23 08:51:16;;;;;;;118.90;19.13;;;6.40;99.90;;;;;;6139968;23;20492;-78
2022/01/23 08:53:45;;;;;;;246.40;37.67;;;6.50;99.90;;;;;;6141423;23;20798;-78
2022/01/23 08:56:14;;;;;;;105.43;20.83;;;6.50;99.90;;;;;;6139965;23;20826;-78
2022/01/23 08:58:42;;;;;;;238.03;33.43;;;6.50;99.90;;;;;;6176675;23;20491;-79
2022/01/23 09:01:12;;;;;;;152.50;28.23;;;6.50;99.90;;;;;;6140557;23;20467;-78
2022/01/23 09:03:42;;;;;;;205.30;42.07;;;6.50;99.90;;;;;;6174633;23;20393;-78
2022/01/23 09:06:10;;;;;;;188.63;31.90;;;6.50;99.90;;;;;;6138695;23;20472;-78
2022/01/23 09:08:40;;;;;;;209.73;33.37;;;6.50;99.90;;;;;;6139494;23;20420;-78
2022/01/23 09:11:13;;;;;;;209.57;34.50;;;6.50;99.90;;;;;;6174571;23;21003;-78
2022/01/23 09:13:53;;;;;;;176.70;25.80;;;6.60;99.90;;;;;;6166775;23;20397;-79
2022/01/23 09:16:23;;;;;;;150.20;30.13;;;6.60;99.90;;;;;;6140107;23;20487;-79
2022/01/23 09:18:52;;;;;;;279.20;44.77;;;6.60;99.90;;;;;;6139878;23;20507;-79
2022/01/23 09:21:21;;;;;;;164.47;25.53;;;6.60;99.90;;;;;;6139213;23;20507;-79
2022/01/23 09:23:49;;;;;;;280.87;36.57;;;6.70;99.90;;;;;;6176352;23;20403;-78
2022/01/23 09:26:21;;;;;;;173.80;24.97;;;6.70;99.90;;;;;;6139614;23;20507;-79
2022/01/23 09:28:52;;;;;;;173.40;27.20;;;6.70;99.90;;;;;;6141251;23;20429;-79
2022/01/23 09:31:29;;;;;;;200.90;30.50;;;6.70;99.90;;;;;;6140243;23;20473;-80
2022/01/23 09:33:58;;;;;;;167.30;29.40;;;6.80;99.90;;;;;;6139406;23;20745;-78
2022/01/23 09:36:26;;;;;;;230.97;34.77;;;6.80;99.90;;;;;;6139586;23;20478;-79
2022/01/23 09:38:56;;;;;;;93.60;25.27;;;6.80;99.90;;;;;;6139505;23;20416;-79
2022/01/23 09:41:29;;;;;;;137.17;22.20;;;6.80;99.90;;;;;;6141253;23;20416;-78
2022/01/23 09:43:59;;;;;;;158.37;27.70;;;6.80;99.90;;;;;;6166159;23;20702;-78
2022/01/23 09:54:11;;;;;;;116.07;18.90;;;6.90;99.90;;;;;;5679024;24;20428;-79
2022/01/23 09:56:49;;;;;;;186.13;27.90;;;6.90;99.90;;;;;;5911550;24;20455;-78
2022/01/23 10:02:39;;;;;;;128.03;20.20;;;6.90;99.90;;;;;;5992010;24;20496;-79
2022/01/23 10:05:14;;;;;;;214.23;23.20;;;7.00;99.90;;;;;;6074021;23;20410;-79
2022/01/23 10:07:43;;;;;;;147.27;22.00;;;7.00;99.90;;;;;;6057276;23;20478;-79
2022/01/23 10:10:17;;;;;;;277.80;29.97;;;7.00;99.90;;;;;;6057416;23;20419;-79
2022/01/23 10:12:50;;;;;;;399.43;50.37;;;7.10;99.90;;;;;;6082340;23;20454;-79
2022/01/23 10:15:20;;;;;;;281.50;41.37;;;7.10;99.90;;;;;;6081927;23;20482;-78
2022/01/23 10:17:50;;;;;;;177.97;27.17;;;7.10;99.90;;;;;;6055334;23;20554;-79
2022/01/23 10:20:23;;;;;;;198.70;28.47;;;7.10;99.90;;;;;;6054855;23;20454;-78
2022/01/23 10:22:57;;;;;;;299.13;35.53;;;7.10;99.90;;;;;;6056275;23;20404;-78
2022/01/23 10:25:28;;;;;;;171.60;33.90;;;7.20;99.90;;;;;;6103682;23;20802;-79
2022/01/23 10:28:07;;;;;;;180.33;33.80;;;7.20;99.90;;;;;;6146056;23;20424;-79
2022/01/23 10:30:41;;;;;;;246.67;32.53;;;7.20;99.90;;;;;;6173040;23;20787;-79
2022/01/23 10:33:15;;;;;;;170.73;30.07;;;7.30;99.90;;;;;;6145932;23;20483;-79
2022/01/23 10:35:55;;;;;;;325.30;40.00;;;7.30;99.90;;;;;;6171867;23;20396;-79
2022/01/23 10:38:25;;;;;;;236.00;26.17;;;7.40;99.90;;;;;;6181865;23;20391;-79
2022/01/23 10:41:23;;;;;;;189.13;30.63;;;7.40;99.90;;;;;;6146841;23;20408;-79
2022/01/23 10:47:32;;;;;;;215.90;33.10;;;7.50;99.90;;;;;;6182065;23;20428;-79
2022/01/23 10:50:05;;;;;;;246.77;38.97;;;7.50;99.90;;;;;;6145931;23;20421;-79
2022/01/23 10:52:37;;;;;;;239.37;34.43;;;7.50;99.90;;;;;;6146404;23;20465;-79
2022/01/23 10:55:07;;;;;;;224.63;38.30;;;7.60;99.90;;;;;;6146104;23;20483;-79
2022/01/23 10:57:38;;;;;;;300.37;39.50;;;7.60;99.90;;;;;;6146264;23;20508;-79
2022/01/23 11:00:10;;;;;;;162.23;25.67;;;7.60;99.90;;;;;;6147459;23;20713;-80
2022/01/23 11:02:41;;;;;;;290.77;37.37;;;7.70;99.90;;;;;;6146490;23;20931;-79
2022/01/23 11:05:14;;;;;;;237.50;34.17;;;7.70;99.90;;;;;;6170697;23;20893;-80
2022/01/23 11:07:47;;;;;;;293.07;46.00;;;7.70;99.90;;;;;;6145151;23;20474;-80
2022/01/23 11:10:22;;;;;;;302.73;43.43;;;7.80;99.90;;;;;;6181285;23;20377;-79
2022/01/23 11:18:36;;;;;;;298.03;41.60;;;7.80;99.90;;;;;;6132720;23;20722;-77
2022/01/23 11:21:19;;;;;;;392.33;52.63;;;7.90;99.90;;;;;;6134734;23;20418;-78
2022/01/23 11:24:07;;;;;;;201.47;25.00;;;7.80;99.90;;;;;;6136321;23;20419;-78
2022/01/23 11:26:35;;;;;;;356.20;51.23;;;7.90;99.90;;;;;;6133461;23;20439;-77
2022/01/23 11:29:10;;;;;;;244.27;40.07;;;7.90;99.90;;;;;;6157747;23;20410;-77
2022/01/23 11:31:40;;;;;;;342.73;49.30;;;7.90;99.90;;;;;;6167366;23;20382;-77
2022/01/23 11:34:09;;;;;;;236.77;36.87;;;7.90;99.90;;;;;;6133208;23;20420;-77
2022/01/23 11:36:39;;;;;;;320.10;43.20;;;7.90;99.90;;;;;;6131247;23;20510;-77
2022/01/23 11:39:13;;;;;;;193.50;29.10;;;7.90;99.90;;;;;;6167878;23;20501;-77
2022/01/23 11:53:46;;;;;;;194.97;31.50;;;8.00;99.90;;;;;;6070350;23;20764;-79
2022/01/23 11:56:36;;;;;;;436.40;50.10;;;8.00;99.90;;;;;;6139438;23;20447;-79
2022/01/23 11:59:42;;;;;;;239.93;40.97;;;8.00;99.90;;;;;;6164947;23;20410;-79
2022/01/23 12:02:21;;;;;;;265.17;35.60;;;8.00;99.90;;;;;;6138715;23;20889;-78
2022/01/23 12:05:24;;;;;;;252.87;38.07;;;8.00;99.90;;;;;;6164403;23;20437;-78
2022/01/23 12:08:37;;;;;;;330.40;44.73;;;8.00;99.90;;;;;;6162279;23;20441;-79
2022/01/23 12:17:08;;;;;;;352.23;57.80;;;8.10;99.90;;;;;;6097214;23;20473;-79
2022/01/23 12:19:43;;;;;;;274.10;57.03;;;8.20;99.90;;;;;;6165538;23;20463;-78
2022/01/23 12:22:53;;;;;;;385.67;51.43;;;8.20;99.90;;;;;;6138156;23;20419;-79
2022/01/23 12:25:27;;;;;;;411.30;42.93;;;8.20;99.90;;;;;;6171501;23;20476;-78
2022/01/23 12:28:43;;;;;;;282.83;42.20;;;8.20;99.90;;;;;;6136103;23;20442;-79
2022/01/23 12:31:22;;;;;;;179.03;19.63;;;8.20;99.90;;;;;;6174188;23;20396;-79
2022/01/23 12:33:52;;;;;;;334.53;41.70;;;8.20;99.90;;;;;;6174543;23;20509;-78
2022/01/23 12:36:25;;;;;;;227.03;27.40;;;8.20;99.90;;;;;;6137443;23;20463;-79
2022/01/23 12:38:55;;;;;;;241.80;37.50;;;8.20;99.90;;;;;;6137305;23;20433;-78
2022/01/23 12:41:31;;;;;;;285.20;33.57;;;8.20;99.90;;;;;;6137325;23;20426;-78
2022/01/23 12:44:06;;;;;;;254.57;30.90;;;8.30;99.90;;;;;;6137280;23;20409;-78
2022/01/23 12:46:38;;;;;;;148.10;28.10;;;8.30;99.90;;;;;;6173436;23;20802;-78
2022/01/23 12:49:21;;;;;;;198.13;29.37;;;8.30;99.90;;;;;;6173589;23;20441;-79
2022/01/23 12:51:51;;;;;;;258.30;39.53;;;8.30;99.90;;;;;;6137412;23;20497;-78
2022/01/23 12:54:41;;;;;;;426.20;45.27;;;8.30;99.90;;;;;;6135805;23;20445;-78
2022/01/23 12:57:12;;;;;;;232.00;44.60;;;8.30;99.90;;;;;;6136332;23;20835;-79
2022/01/23 12:59:51;;;;;;;376.87;56.53;;;8.30;99.90;;;;;;6162464;23;20400;-78
2022/01/23 13:02:21;;;;;;;187.60;36.50;;;8.30;99.90;;;;;;6136508;23;20465;-79
2022/01/23 13:04:51;;;;;;;137.77;28.23;;;8.30;99.90;;;;;;6136123;23;20928;-78
2022/01/23 13:07:28;;;;;;;254.53;38.30;;;8.30;99.90;;;;;;6134982;23;20454;-78
2022/01/23 13:10:07;;;;;;;169.90;28.97;;;8.30;99.90;;;;;;6173350;23;20385;-79
2022/01/23 13:12:56;;;;;;;173.60;32.80;;;8.30;99.90;;;;;;6162938;23;20393;-78
2022/01/23 13:18:33;;;;;;;288.60;34.97;;;8.30;99.90;;;;;;6160135;23;20445;-78
2022/01/23 13:32:27;;;;;;;348.83;38.00;;;8.30;99.90;;;;;;6135967;23;20407;-79
2022/01/23 13:34:59;;;;;;;292.73;38.07;;;8.30;99.90;;;;;;6138025;23;20431;-78
2022/01/23 13:37:31;;;;;;;351.37;47.80;;;8.30;99.90;;;;;;6136123;23;20439;-78
2022/01/23 13:40:05;;;;;;;407.23;53.47;;;8.30;99.90;;;;;;6137003;23;20443;-78
2022/01/23 13:47:52;;;;;;;356.93;53.97;;;8.30;99.90;;;;;;6135606;23;20406;-79
2022/01/23 13:49:16;;;;;;;439.93;53.90;;;8.30;99.90;;;;;;6161235;23;20419;-78
2022/01/23 13:51:56;;;;;;;435.57;62.27;;;8.30;99.90;;;;;;6135312;23;20417;-79
2022/01/23 14:00:12;;;;;;;484.37;57.13;;;8.30;99.90;;;;;;6106536;23;20415;-79
2022/01/23 14:02:43;;;;;;;368.00;56.67;;;8.30;99.90;;;;;;6106955;23;20470;-78
2022/01/23 14:05:15;;;;;;;222.17;37.27;;;8.30;99.90;;;;;;6108359;23;20836;-78
2022/01/23 14:07:48;;;;;;;494.57;50.07;;;8.30;99.90;;;;;;6107381;23;20513;-78
2022/01/23 14:10:18;;;;;;;369.70;37.43;;;8.30;99.90;;;;;;6133600;23;20461;-78
2022/01/23 14:12:48;;;;;;;333.70;43.57;;;8.30;99.90;;;;;;6106644;23;20459;-78
2022/01/23 14:15:22;;;;;;;340.40;38.83;;;8.30;99.90;;;;;;6107094;23;20774;-78
2022/01/23 14:18:01;;;;;;;382.97;39.77;;;8.30;99.90;;;;;;6107909;23;20474;-78
2022/01/23 14:20:33;;;;;;;264.03;29.97;;;8.40;99.90;;;;;;6107089;23;20737;-79
2022/01/23 14:23:12;;;;;;;234.17;34.67;;;8.30;99.90;;;;;;6107329;23;20851;-79
2022/01/23 14:25:48;;;;;;;340.67;44.60;;;8.40;99.90;;;;;;6107236;23;20425;-79
2022/01/23 14:28:20;;;;;;;432.20;46.63;;;8.40;99.90;;;;;;6107897;23;20418;-78
2022/01/23 14:30:51;;;;;;;134.97;29.10;;;8.40;99.90;;;;;;6106750;23;20448;-79
2022/01/23 14:33:22;;;;;;;241.17;38.30;;;8.40;99.90;;;;;;6106342;23;20435;-79
2022/01/23 14:35:52;;;;;;;176.43;23.50;;;8.40;99.90;;;;;;6106515;23;20950;-78
2022/01/23 14:38:23;;;;;;;345.93;39.97;;;8.30;99.90;;;;;;6106209;23;20451;-78
2022/01/23 14:40:54;;;;;;;377.47;48.20;;;8.30;99.90;;;;;;6106789;23;20872;-78
2022/01/23 14:43:29;;;;;;;224.43;23.77;;;8.40;99.90;;;;;;6106741;23;20881;-78
2022/01/23 14:45:58;;;;;;;437.03;48.07;;;8.30;99.90;;;;;;6132969;23;20421;-78
2022/01/23 14:48:28;;;;;;;281.70;35.83;;;8.30;99.90;;;;;;6132091;23;20497;-78
2022/01/23 14:51:04;;;;;;;165.63;28.13;;;8.30;99.90;;;;;;6108269;23;20452;-78
2022/01/23 14:53:35;;;;;;;258.90;36.27;;;8.30;99.90;;;;;;6107938;23;20439;-78
2022/01/23 14:56:06;;;;;;;169.17;22.13;;;8.30;99.90;;;;;;6108177;23;21004;-78
2022/01/23 14:58:36;;;;;;;289.73;35.13;;;8.30;99.90;;;;;;6107923;23;20416;-78
2022/01/23 15:01:07;;;;;;;417.83;45.03;;;8.20;99.90;;;;;;6108108;23;20477;-78
2022/01/23 15:03:37;;;;;;;380.07;49.07;;;8.20;99.90;;;;;;6134310;23;20774;-78
2022/01/23 15:06:27;;;;;;;470.70;51.87;;;8.30;99.90;;;;;;6108295;23;20434;-78
2022/01/23 15:08:55;;;;;;;211.57;38.07;;;8.20;99.90;;;;;;6134437;23;20422;-78
2022/01/23 15:11:23;;;;;;;366.97;52.60;;;8.20;99.90;;;;;;6108616;23;20418;-79
2022/01/23 15:13:51;;;;;;;248.40;29.73;;;8.20;99.90;;;;;;6108340;23;20435;-79
2022/01/23 15:16:26;;;;;;;306.10;37.40;;;8.20;99.90;;;;;;6144339;23;20450;-78
2022/01/23 15:18:56;;;;;;;407.30;41.90;;;8.20;99.90;;;;;;6134238;23;20875;-78
2022/01/23 15:21:28;;;;;;;327.00;39.57;;;8.20;99.90;;;;;;6108580;23;20420;-79
2022/01/23 15:23:57;;;;;;;291.30;39.67;;;8.20;99.90;;;;;;6108390;23;20417;-78
2022/01/23 15:26:29;;;;;;;430.80;46.40;;;8.20;99.90;;;;;;6084097;23;20537;-79
2022/01/23 15:28:58;;;;;;;358.70;48.07;;;8.20;99.90;;;;;;6109499;23;20421;-78
2022/01/23 15:31:27;;;;;;;312.07;41.67;;;8.10;99.90;;;;;;6107999;23;20418;-78
2022/01/23 15:33:56;;;;;;;325.57;58.97;;;8.10;99.90;;;;;;6107980;23;20442;-78
2022/01/23 15:36:27;;;;;;;313.80;49.37;;;8.10;99.90;;;;;;6108683;23;20518;-78
2022/01/23 15:38:56;;;;;;;181.63;28.17;;;8.10;99.90;;;;;;6108138;23;20418;-79
2022/01/23 15:41:26;;;;;;;335.47;51.57;;;8.10;99.90;;;;;;6107457;23;20496;-78
2022/01/23 15:43:56;;;;;;;323.33;35.40;;;8.10;99.90;;;;;;6107769;23;20945;-78
2022/01/23 15:46:25;;;;;;;144.60;34.87;;;8.10;99.90;;;;;;6109188;23;20444;-78
2022/01/23 15:48:53;;;;;;;391.80;40.43;;;8.10;99.90;;;;;;6107848;23;20428;-79
2022/01/23 15:51:21;;;;;;;139.83;25.63;;;8.00;99.90;;;;;;6107625;23;20415;-78
2022/01/23 15:53:51;;;;;;;262.40;30.90;;;8.00;99.90;;;;;;6133254;23;20481;-79
2022/01/23 15:56:21;;;;;;;248.07;37.53;;;8.00;99.90;;;;;;6107283;23;20562;-78
2022/01/23 15:58:49;;;;;;;440.67;40.20;;;7.90;99.90;;;;;;6107191;23;20438;-78
2022/01/23 16:01:18;;;;;;;255.43;28.70;;;8.00;99.90;;;;;;6106974;23;20435;-78
2022/01/23 16:03:47;;;;;;;536.30;66.57;;;7.90;99.90;;;;;;6106600;23;20418;-79
2022/01/23 16:06:16;;;;;;;482.07;65.57;;;7.90;99.90;;;;;;6142690;23;20429;-79
2022/01/23 16:08:52;;;;;;;226.30;33.93;;;7.90;99.90;;;;;;6107534;23;20461;-78
2022/01/23 16:11:20;;;;;;;431.47;53.87;;;7.90;99.90;;;;;;6106503;23;20490;-78
2022/01/23 16:13:48;;;;;;;327.17;47.17;;;7.90;99.90;;;;;;6107342;23;21014;-78
2022/01/23 16:16:18;;;;;;;388.97;50.17;;;7.90;99.90;;;;;;6108147;23;20437;-78
2022/01/23 16:18:46;;;;;;;401.07;44.90;;;7.90;99.90;;;;;;6143712;23;20411;-78